createdAt,value
2018-01-13T00:06:21.258Z,31.7
2018-01-13T00:26:22.599Z,34.7
2018-01-13T00:41:21.225Z,35.8
2018-01-13T01:11:31.441Z,33.3
2018-01-13T01:31:31.257Z,28.9
2018-01-13T01:46:21.388Z,28.1
2018-01-13T02:01:21.548Z,24
2018-01-13T02:21:21.236Z,23.8
2018-01-13T02:36:21.246Z,27.5
2018-01-13T02:51:21.349Z,30.9
2018-01-13T03:06:21.400Z,25.5
2018-01-13T03:26:21.428Z,26.7
2018-01-13T03:41:21.400Z,26.7
2018-01-13T03:56:21.484Z,31.4
2018-01-13T04:16:21.367Z,27.9
2018-01-13T04:31:21.348Z,28.1
2018-01-13T04:46:21.358Z,33
2018-01-13T05:01:21.377Z,27.3
2018-01-13T05:21:21.457Z,25.5
2018-01-13T05:36:21.357Z,24.7
2018-01-13T05:51:21.425Z,26.2
2018-01-13T06:11:21.470Z,28.1
2018-01-13T06:26:21.399Z,29.6
2018-01-13T06:41:21.526Z,28.8
2018-01-13T06:56:21.433Z,25.3
2018-01-13T07:16:21.371Z,25.3
2018-01-13T07:31:21.648Z,24.7
2018-01-13T07:46:22.386Z,19.5
2018-01-13T08:06:21.491Z,22.3
2018-01-13T08:21:21.600Z,20.4
2018-01-13T08:36:21.500Z,24.8
2018-01-13T09:11:21.659Z,25.9
2018-01-13T09:26:21.696Z,25.2
2018-01-13T09:41:21.538Z,25.9
2018-01-13T10:01:21.518Z,26.2
2018-01-13T11:20:50.634Z,29
2018-01-13T11:39:10.498Z,24.7
2018-01-13T11:54:00.571Z,26.3
2018-01-13T12:09:00.588Z,24.6
2018-01-13T12:29:00.586Z,26.5
2018-01-13T12:44:00.590Z,24.3
2018-01-13T12:59:00.687Z,25
2018-01-13T13:19:02.209Z,25.7
2018-01-13T13:34:00.688Z,27.2
2018-01-13T13:49:00.646Z,23.3
2018-01-13T14:04:00.622Z,22.5
2018-01-13T14:24:00.704Z,20.6
2018-01-13T14:39:07.553Z,23
2018-01-13T14:54:00.734Z,19.2
2018-01-13T15:14:00.732Z,21.1
2018-01-13T15:44:02.145Z,17
2018-01-13T15:59:00.958Z,17.4
2018-01-13T16:19:01.562Z,16.5
2018-01-13T16:34:01.012Z,17.6
2018-01-13T16:49:00.917Z,17.8
2018-01-13T17:09:00.794Z,17.4
2018-01-13T17:24:00.750Z,14.4
2018-01-13T17:39:01.051Z,13.6
2018-01-13T17:54:02.087Z,13.2
2018-01-13T18:14:00.807Z,12.3
2018-01-13T18:29:01.046Z,9.2
2018-01-13T18:59:00.948Z,11.7
2018-01-13T19:19:01.236Z,10.8
2018-01-13T19:34:00.827Z,12
2018-01-13T19:49:02.015Z,14
2018-01-13T20:09:01.112Z,12.8
2018-01-13T20:24:01.308Z,15.6
2018-01-13T20:39:01.365Z,15.5
2018-01-13T20:54:01.888Z,16.9
2018-01-13T21:14:00.994Z,17.9
2018-01-13T21:29:01.528Z,17.1
2018-01-13T21:44:00.955Z,20.7
2018-01-13T22:04:00.995Z,20
2018-01-13T22:19:01.524Z,18.3
2018-01-13T22:34:00.927Z,14
2018-01-13T22:49:00.937Z,14.3
2018-01-13T23:09:00.999Z,11.5
2018-01-13T23:24:01.119Z,11
2018-01-13T23:39:00.917Z,10.7
2018-01-13T23:59:00.927Z,10.2
